ANA78J RJAA-RJFO
Flight info
| Callsign | ANA78J |
|---|---|
| Flight time | 1h 22m |
| Altitude | 38000 |
| Route | REDEK Y60 TOKOM Y604 WASYU Y28 MARCO Y45 YANAI BAIEN TFE |
| Aircraft | A20N/M-SDE2E3FGHIRWXY/LB1 |
Departure
| Time | 2026-04-20 06:10 |
|---|---|
| Airport | Narita International Airport (RJAA) |
Arrival
| Time | 2026-04-20 07:32 |
|---|---|
| Airport | Oita Airport (RJFO) |
| Time | Latitude | Longitude | Altitude | Speed | Heading |
|---|---|---|---|---|---|
| 2026-04-20 05:39 | 35.76137 | 140.38426 | 138 ft | 0 kts | 60° |
| 2026-04-20 05:57 | 35.76136 | 140.38425 | 138 ft | 1 kts | 60° |
| 2026-04-20 05:57 | 35.76129 | 140.38409 | 138 ft | 2 kts | 59° |
| 2026-04-20 05:58 | 35.76121 | 140.38394 | 138 ft | 2 kts | 60° |
| 2026-04-20 05:58 | 35.76114 | 140.38377 | 138 ft | 2 kts | 59° |
| 2026-04-20 05:58 | 35.76106 | 140.38362 | 138 ft | 2 kts | 60° |
| 2026-04-20 05:58 | 35.76099 | 140.38347 | 138 ft | 1 kts | 59° |
| 2026-04-20 05:59 | 35.76094 | 140.38336 | 139 ft | 2 kts | 47° |
| 2026-04-20 05:59 | 35.76082 | 140.38325 | 139 ft | 2 kts | 17° |
| 2026-04-20 05:59 | 35.76067 | 140.38324 | 139 ft | 2 kts | 349° |
| 2026-04-20 05:59 | 35.76057 | 140.38327 | 139 ft | 0 kts | 331° |
| 2026-04-20 06:00 | 35.76051 | 140.38332 | 139 ft | 0 kts | 328° |
| 2026-04-20 06:02 | 35.76052 | 140.38332 | 139 ft | 0 kts | 329° |
| 2026-04-20 06:02 | 35.76076 | 140.38313 | 139 ft | 7 kts | 329° |
| 2026-04-20 06:03 | 35.76136 | 140.38272 | 139 ft | 11 kts | 330° |
| 2026-04-20 06:03 | 35.76207 | 140.38219 | 139 ft | 12 kts | 329° |
| 2026-04-20 06:03 | 35.76256 | 140.38152 | 138 ft | 11 kts | 266° |
| 2026-04-20 06:03 | 35.76274 | 140.38051 | 136 ft | 13 kts | 328° |
| 2026-04-20 06:04 | 35.76356 | 140.37999 | 135 ft | 12 kts | 332° |
| 2026-04-20 06:04 | 35.76440 | 140.37936 | 133 ft | 15 kts | 329° |
| 2026-04-20 06:04 | 35.76537 | 140.37866 | 131 ft | 17 kts | 329° |
| 2026-04-20 06:04 | 35.76646 | 140.37790 | 129 ft | 18 kts | 330° |
| 2026-04-20 06:05 | 35.76761 | 140.37705 | 129 ft | 19 kts | 329° |
| 2026-04-20 06:05 | 35.76848 | 140.37636 | 128 ft | 10 kts | 311° |
| 2026-04-20 06:05 | 35.76851 | 140.37543 | 127 ft | 10 kts | 265° |
| 2026-04-20 06:05 | 35.76900 | 140.37476 | 125 ft | 12 kts | 330° |
| 2026-04-20 06:06 | 35.76982 | 140.37418 | 124 ft | 14 kts | 330° |
| 2026-04-20 06:06 | 35.77078 | 140.37347 | 121 ft | 17 kts | 329° |
| 2026-04-20 06:06 | 35.77188 | 140.37267 | 119 ft | 18 kts | 327° |
| 2026-04-20 06:06 | 35.77291 | 140.37193 | 117 ft | 16 kts | 330° |
| 2026-04-20 06:07 | 35.77393 | 140.37118 | 116 ft | 17 kts | 329° |
| 2026-04-20 06:07 | 35.77483 | 140.37048 | 116 ft | 10 kts | 313° |
| 2026-04-20 06:07 | 35.77493 | 140.36978 | 117 ft | 1 kts | 249° |
| 2026-04-20 06:07 | 35.77491 | 140.36974 | 117 ft | 0 kts | 241° |
| 2026-04-20 06:08 | 35.77485 | 140.36960 | 118 ft | 2 kts | 241° |
| 2026-04-20 06:08 | 35.77467 | 140.36922 | 120 ft | 9 kts | 239° |
| 2026-04-20 06:08 | 35.77430 | 140.36861 | 122 ft | 8 kts | 210° |
| 2026-04-20 06:09 | 35.77373 | 140.36877 | 122 ft | 9 kts | 148° |
| 2026-04-20 06:09 | 35.77292 | 140.36935 | 121 ft | 30 kts | 149° |
| 2026-04-20 06:09 | 35.76849 | 140.37257 | 126 ft | 112 kts | 149° |
| 2026-04-20 06:09 | 35.76001 | 140.37862 | 270 ft | 160 kts | 147° |
| 2026-04-20 06:10 | 35.75065 | 140.38504 | 1084 ft | 157 kts | 148° |
| 2026-04-20 06:10 | 35.74143 | 140.39149 | 1988 ft | 153 kts | 148° |
| 2026-04-20 06:10 | 35.73189 | 140.39819 | 2547 ft | 169 kts | 148° |
| 2026-04-20 06:10 | 35.72125 | 140.40585 | 3106 ft | 187 kts | 148° |
| 2026-04-20 06:11 | 35.70932 | 140.41449 | 3627 ft | 210 kts | 148° |
| 2026-04-20 06:11 | 35.69623 | 140.42397 | 4276 ft | 228 kts | 148° |
| 2026-04-20 06:11 | 35.68183 | 140.43427 | 4939 ft | 247 kts | 151° |
| 2026-04-20 06:11 | 35.66492 | 140.43971 | 5632 ft | 265 kts | 183° |
| 2026-04-20 06:12 | 35.64790 | 140.43153 | 6658 ft | 272 kts | 218° |
| 2026-04-20 06:12 | 35.63725 | 140.41275 | 7681 ft | 280 kts | 247° |
| 2026-04-20 06:12 | 35.63146 | 140.38980 | 8621 ft | 286 kts | 250° |
| 2026-04-20 06:12 | 35.62528 | 140.36661 | 9493 ft | 292 kts | 248° |
| 2026-04-20 06:13 | 35.61855 | 140.34309 | 10399 ft | 296 kts | 247° |
| 2026-04-20 06:13 | 35.61140 | 140.31905 | 11162 ft | 305 kts | 246° |
| 2026-04-20 06:13 | 35.60397 | 140.29446 | 12047 ft | 310 kts | 246° |
| 2026-04-20 06:13 | 35.59652 | 140.27010 | 12977 ft | 312 kts | 246° |
| 2026-04-20 06:14 | 35.58888 | 140.24527 | 13884 ft | 314 kts | 246° |
| 2026-04-20 06:14 | 35.58109 | 140.22014 | 14759 ft | 317 kts | 247° |
| 2026-04-20 06:14 | 35.57331 | 140.19502 | 15614 ft | 318 kts | 247° |
| 2026-04-20 06:14 | 35.56544 | 140.16959 | 16520 ft | 319 kts | 248° |
| 2026-04-20 06:15 | 35.55763 | 140.14438 | 17336 ft | 320 kts | 248° |
| 2026-04-20 06:15 | 35.54982 | 140.11922 | 18171 ft | 320 kts | 248° |
| 2026-04-20 06:15 | 35.54180 | 140.09346 | 18924 ft | 324 kts | 248° |
| 2026-04-20 06:15 | 35.53376 | 140.06760 | 19651 ft | 327 kts | 248° |
| 2026-04-20 06:16 | 35.52573 | 140.04179 | 20383 ft | 330 kts | 248° |
| 2026-04-20 06:16 | 35.51746 | 140.01529 | 20934 ft | 339 kts | 249° |
| 2026-04-20 06:16 | 35.50899 | 139.98811 | 21560 ft | 345 kts | 249° |
| 2026-04-20 06:16 | 35.50041 | 139.96065 | 22272 ft | 347 kts | 249° |
| 2026-04-20 06:17 | 35.49176 | 139.93300 | 22945 ft | 351 kts | 249° |
| 2026-04-20 06:17 | 35.48301 | 139.90503 | 23630 ft | 354 kts | 249° |
| 2026-04-20 06:17 | 35.47424 | 139.87698 | 24283 ft | 358 kts | 249° |
| 2026-04-20 06:17 | 35.46525 | 139.84827 | 24923 ft | 362 kts | 249° |
| 2026-04-20 06:18 | 35.45625 | 139.81967 | 25539 ft | 365 kts | 249° |
| 2026-04-20 06:18 | 35.44704 | 139.79044 | 26129 ft | 369 kts | 250° |
| 2026-04-20 06:18 | 35.43777 | 139.76105 | 26706 ft | 372 kts | 249° |
| 2026-04-20 06:18 | 35.42838 | 139.73132 | 27270 ft | 375 kts | 250° |
| 2026-04-20 06:19 | 35.41895 | 139.70155 | 27824 ft | 378 kts | 250° |
| 2026-04-20 06:19 | 35.40946 | 139.67160 | 28342 ft | 381 kts | 250° |
| 2026-04-20 06:19 | 35.39980 | 139.64114 | 28801 ft | 385 kts | 250° |
| 2026-04-20 06:19 | 35.39001 | 139.61034 | 29261 ft | 388 kts | 250° |
| 2026-04-20 06:20 | 35.38021 | 139.57950 | 29674 ft | 392 kts | 250° |
| 2026-04-20 06:20 | 35.37040 | 139.54868 | 30109 ft | 394 kts | 250° |
| 2026-04-20 06:20 | 35.36064 | 139.51730 | 30503 ft | 395 kts | 252° |
| 2026-04-20 06:20 | 35.35266 | 139.48502 | 30871 ft | 397 kts | 257° |
| 2026-04-20 06:21 | 35.34692 | 139.45201 | 31224 ft | 398 kts | 261° |
| 2026-04-20 06:21 | 35.34344 | 139.41841 | 31557 ft | 400 kts | 266° |
| 2026-04-20 06:21 | 35.34163 | 139.38426 | 31883 ft | 402 kts | 267° |
| 2026-04-20 06:21 | 35.34010 | 139.35037 | 32206 ft | 404 kts | 267° |
| 2026-04-20 06:22 | 35.33856 | 139.31584 | 32629 ft | 403 kts | 267° |
| 2026-04-20 06:22 | 35.33703 | 139.28207 | 33086 ft | 401 kts | 267° |
| 2026-04-20 06:22 | 35.33546 | 139.24802 | 33505 ft | 399 kts | 267° |
| 2026-04-20 06:22 | 35.33389 | 139.21448 | 33891 ft | 398 kts | 267° |
| 2026-04-20 06:23 | 35.33229 | 139.18059 | 34263 ft | 396 kts | 266° |
| 2026-04-20 06:23 | 35.33069 | 139.14720 | 34626 ft | 395 kts | 266° |
| 2026-04-20 06:23 | 35.32908 | 139.11394 | 34986 ft | 393 kts | 266° |
| 2026-04-20 06:23 | 35.32745 | 139.08054 | 35313 ft | 392 kts | 266° |
| 2026-04-20 06:24 | 35.32580 | 139.04723 | 35633 ft | 391 kts | 266° |
| 2026-04-20 06:24 | 35.32416 | 139.01417 | 35985 ft | 389 kts | 266° |
| 2026-04-20 06:24 | 35.32251 | 138.98126 | 36342 ft | 388 kts | 266° |
| 2026-04-20 06:24 | 35.32088 | 138.94840 | 36658 ft | 388 kts | 266° |
| 2026-04-20 06:25 | 35.31924 | 138.91531 | 36919 ft | 389 kts | 266° |
| 2026-04-20 06:25 | 35.31764 | 138.88243 | 37147 ft | 390 kts | 266° |
| 2026-04-20 06:25 | 35.31601 | 138.84924 | 37388 ft | 391 kts | 266° |
| 2026-04-20 06:25 | 35.31438 | 138.81619 | 37665 ft | 390 kts | 266° |
| 2026-04-20 06:26 | 35.31269 | 138.78288 | 37906 ft | 391 kts | 266° |
| 2026-04-20 06:26 | 35.31100 | 138.74977 | 38043 ft | 393 kts | 266° |
| 2026-04-20 06:26 | 35.30757 | 138.68352 | 38041 ft | 393 kts | 266° |
| 2026-04-20 06:27 | 35.30408 | 138.61670 | 38061 ft | 394 kts | 266° |
| 2026-04-20 06:27 | 35.30055 | 138.54988 | 38027 ft | 394 kts | 266° |
| 2026-04-20 06:28 | 35.29697 | 138.48322 | 38056 ft | 394 kts | 266° |
| 2026-04-20 06:28 | 35.29332 | 138.41591 | 38053 ft | 395 kts | 266° |
| 2026-04-20 06:29 | 35.28973 | 138.35022 | 38054 ft | 394 kts | 266° |
| 2026-04-20 06:29 | 35.28639 | 138.28993 | 38050 ft | 394 kts | 266° |
| 2026-04-20 06:30 | 35.28305 | 138.23009 | 38036 ft | 395 kts | 266° |
| 2026-04-20 06:30 | 35.27958 | 138.16849 | 38048 ft | 395 kts | 266° |
| 2026-04-20 06:31 | 35.27593 | 138.10342 | 38066 ft | 397 kts | 266° |
| 2026-04-20 06:31 | 35.27214 | 138.03630 | 38080 ft | 397 kts | 266° |
| 2026-04-20 06:32 | 35.26827 | 137.96857 | 38045 ft | 397 kts | 266° |
| 2026-04-20 06:32 | 35.26429 | 137.90149 | 38045 ft | 397 kts | 266° |
| 2026-04-20 06:33 | 35.26032 | 137.83446 | 38074 ft | 397 kts | 267° |
| 2026-04-20 06:33 | 35.25602 | 137.76710 | 38033 ft | 397 kts | 266° |
| 2026-04-20 06:34 | 35.25091 | 137.70018 | 38054 ft | 398 kts | 266° |
| 2026-04-20 06:35 | 35.23930 | 137.59952 | 38058 ft | 400 kts | 260° |
| 2026-04-20 06:35 | 35.22451 | 137.53438 | 38052 ft | 402 kts | 254° |
| 2026-04-20 06:36 | 35.20610 | 137.46964 | 38046 ft | 402 kts | 254° |
| 2026-04-20 06:36 | 35.18758 | 137.40491 | 38026 ft | 404 kts | 254° |
| 2026-04-20 06:37 | 35.16962 | 137.34233 | 38041 ft | 404 kts | 253° |
| 2026-04-20 06:37 | 35.15157 | 137.27936 | 38072 ft | 404 kts | 253° |
| 2026-04-20 06:38 | 35.13303 | 137.21490 | 38016 ft | 406 kts | 254° |
| 2026-04-20 06:38 | 35.11478 | 137.15167 | 37981 ft | 406 kts | 253° |
| 2026-04-20 06:39 | 35.10070 | 137.10306 | 38005 ft | 407 kts | 253° |
| 2026-04-20 06:39 | 35.08731 | 137.05682 | 37996 ft | 408 kts | 254° |
| 2026-04-20 06:40 | 35.06811 | 136.99087 | 38009 ft | 409 kts | 254° |
| 2026-04-20 06:40 | 35.04911 | 136.92575 | 37997 ft | 409 kts | 254° |
| 2026-04-20 06:41 | 35.02998 | 136.86032 | 37979 ft | 408 kts | 254° |
| 2026-04-20 06:41 | 35.01127 | 136.79547 | 38012 ft | 406 kts | 256° |
| 2026-04-20 06:42 | 34.99495 | 136.72966 | 37982 ft | 405 kts | 257° |
| 2026-04-20 06:42 | 34.97901 | 136.66498 | 38006 ft | 406 kts | 257° |
| 2026-04-20 06:43 | 34.96279 | 136.59956 | 37989 ft | 406 kts | 257° |
| 2026-04-20 06:43 | 34.94634 | 136.53343 | 37990 ft | 406 kts | 257° |
| 2026-04-20 06:44 | 34.92999 | 136.46794 | 37978 ft | 405 kts | 257° |
| 2026-04-20 06:44 | 34.91365 | 136.40265 | 37989 ft | 403 kts | 257° |
| 2026-04-20 06:45 | 34.89771 | 136.33919 | 37977 ft | 404 kts | 257° |
| 2026-04-20 06:45 | 34.88102 | 136.27374 | 37991 ft | 404 kts | 257° |
| 2026-04-20 06:46 | 34.86597 | 136.21458 | 37991 ft | 402 kts | 257° |
| 2026-04-20 06:46 | 34.84945 | 136.14944 | 37985 ft | 402 kts | 257° |
| 2026-04-20 06:47 | 34.83303 | 136.08462 | 37976 ft | 402 kts | 257° |
| 2026-04-20 06:47 | 34.81662 | 136.02006 | 37969 ft | 400 kts | 258° |
| 2026-04-20 06:48 | 34.80007 | 135.95517 | 37964 ft | 401 kts | 258° |
| 2026-04-20 06:48 | 34.78506 | 135.89638 | 37952 ft | 400 kts | 257° |
| 2026-04-20 06:49 | 34.76918 | 135.83431 | 37962 ft | 400 kts | 258° |
| 2026-04-20 06:49 | 34.75266 | 135.76984 | 37962 ft | 400 kts | 257° |
| 2026-04-20 06:50 | 34.73608 | 135.70537 | 37959 ft | 400 kts | 258° |
| 2026-04-20 06:50 | 34.71974 | 135.64203 | 37959 ft | 401 kts | 258° |
| 2026-04-20 06:51 | 34.68872 | 135.52214 | 37952 ft | 401 kts | 258° |
| 2026-04-20 06:52 | 34.67202 | 135.45778 | 37949 ft | 401 kts | 258° |
| 2026-04-20 06:52 | 34.66365 | 135.42555 | 38138 ft | 399 kts | 258° |
| 2026-04-20 06:52 | 34.65602 | 135.39314 | 38008 ft | 397 kts | 261° |
| 2026-04-20 06:53 | 34.64418 | 135.32918 | 37972 ft | 397 kts | 262° |
| 2026-04-20 06:53 | 34.63253 | 135.26376 | 37961 ft | 395 kts | 262° |
| 2026-04-20 06:54 | 34.62085 | 135.19871 | 37968 ft | 395 kts | 262° |
| 2026-04-20 06:54 | 34.60922 | 135.13390 | 37966 ft | 395 kts | 263° |
| 2026-04-20 06:55 | 34.59740 | 135.06867 | 37946 ft | 393 kts | 263° |
| 2026-04-20 06:55 | 34.58566 | 135.00397 | 37945 ft | 395 kts | 263° |
| 2026-04-20 06:56 | 34.57445 | 134.94223 | 37934 ft | 395 kts | 263° |
| 2026-04-20 06:56 | 34.56259 | 134.87721 | 37938 ft | 394 kts | 262° |
| 2026-04-20 06:57 | 34.55077 | 134.81270 | 37935 ft | 394 kts | 262° |
| 2026-04-20 06:57 | 34.53880 | 134.74768 | 37932 ft | 394 kts | 263° |
| 2026-04-20 06:58 | 34.52694 | 134.68324 | 37930 ft | 394 kts | 262° |
| 2026-04-20 06:58 | 34.51489 | 134.61822 | 37926 ft | 395 kts | 263° |
| 2026-04-20 06:59 | 34.50289 | 134.55354 | 37921 ft | 392 kts | 262° |
| 2026-04-20 06:59 | 34.49087 | 134.48918 | 37932 ft | 394 kts | 262° |
| 2026-04-20 07:00 | 34.47890 | 134.42485 | 37932 ft | 392 kts | 262° |
| 2026-04-20 07:00 | 34.46687 | 134.36052 | 37933 ft | 392 kts | 262° |
| 2026-04-20 07:01 | 34.45472 | 134.29585 | 37937 ft | 393 kts | 262° |
| 2026-04-20 07:01 | 34.44383 | 134.23145 | 37937 ft | 390 kts | 265° |
| 2026-04-20 07:02 | 34.43817 | 134.16673 | 37933 ft | 386 kts | 270° |
| 2026-04-20 07:02 | 34.43798 | 134.10197 | 37934 ft | 384 kts | 276° |
| 2026-04-20 07:03 | 34.44115 | 134.03729 | 37935 ft | 384 kts | 276° |
| 2026-04-20 07:03 | 34.44432 | 133.97288 | 37930 ft | 383 kts | 276° |
| 2026-04-20 07:04 | 34.44743 | 133.90891 | 37933 ft | 383 kts | 276° |
| 2026-04-20 07:04 | 34.44891 | 133.87848 | 37697 ft | 384 kts | 276° |
| 2026-04-20 07:04 | 34.45044 | 133.84660 | 37326 ft | 379 kts | 277° |
| 2026-04-20 07:04 | 34.45192 | 133.81485 | 36860 ft | 376 kts | 277° |
| 2026-04-20 07:05 | 34.45342 | 133.78342 | 36221 ft | 376 kts | 277° |
| 2026-04-20 07:05 | 34.45491 | 133.75169 | 35623 ft | 375 kts | 277° |
| 2026-04-20 07:05 | 34.45638 | 133.72052 | 35020 ft | 374 kts | 278° |
| 2026-04-20 07:05 | 34.45787 | 133.68895 | 34428 ft | 373 kts | 278° |
| 2026-04-20 07:06 | 34.45932 | 133.65778 | 33840 ft | 372 kts | 278° |
| 2026-04-20 07:06 | 34.46077 | 133.62686 | 33261 ft | 371 kts | 278° |
| 2026-04-20 07:06 | 34.46222 | 133.59554 | 32670 ft | 370 kts | 278° |
| 2026-04-20 07:06 | 34.46366 | 133.56473 | 32079 ft | 369 kts | 278° |
| 2026-04-20 07:07 | 34.46509 | 133.53371 | 31481 ft | 368 kts | 277° |
| 2026-04-20 07:07 | 34.46650 | 133.50297 | 30966 ft | 367 kts | 277° |
| 2026-04-20 07:07 | 34.46786 | 133.47218 | 30596 ft | 370 kts | 276° |
| 2026-04-20 07:07 | 34.46838 | 133.44081 | 30209 ft | 370 kts | 273° |
| 2026-04-20 07:08 | 34.46693 | 133.40984 | 29826 ft | 369 kts | 268° |
| 2026-04-20 07:08 | 34.46354 | 133.37920 | 29439 ft | 369 kts | 264° |
| 2026-04-20 07:08 | 34.45816 | 133.34854 | 29051 ft | 368 kts | 259° |
| 2026-04-20 07:08 | 34.45101 | 133.31894 | 28673 ft | 368 kts | 256° |
| 2026-04-20 07:09 | 34.44226 | 133.28957 | 28305 ft | 368 kts | 254° |
| 2026-04-20 07:09 | 34.43331 | 133.26082 | 27941 ft | 367 kts | 254° |
| 2026-04-20 07:09 | 34.42434 | 133.23212 | 27576 ft | 364 kts | 253° |
| 2026-04-20 07:09 | 34.41541 | 133.20360 | 27182 ft | 362 kts | 253° |
| 2026-04-20 07:10 | 34.40662 | 133.17549 | 26790 ft | 359 kts | 253° |
| 2026-04-20 07:10 | 34.39774 | 133.14734 | 26371 ft | 357 kts | 253° |
| 2026-04-20 07:10 | 34.38882 | 133.11932 | 25941 ft | 354 kts | 253° |
| 2026-04-20 07:10 | 34.38006 | 133.09186 | 25525 ft | 351 kts | 252° |
| 2026-04-20 07:11 | 34.37134 | 133.06447 | 25124 ft | 348 kts | 252° |
| 2026-04-20 07:11 | 34.36261 | 133.03722 | 24667 ft | 346 kts | 252° |
| 2026-04-20 07:11 | 34.35406 | 133.01041 | 24238 ft | 344 kts | 252° |
| 2026-04-20 07:11 | 34.34550 | 132.98367 | 23852 ft | 340 kts | 252° |
| 2026-04-20 07:12 | 34.33694 | 132.95695 | 23421 ft | 338 kts | 252° |
| 2026-04-20 07:12 | 34.32848 | 132.93059 | 23006 ft | 335 kts | 251° |
| 2026-04-20 07:12 | 34.32020 | 132.90474 | 22640 ft | 332 kts | 252° |
| 2026-04-20 07:12 | 34.31185 | 132.87871 | 22232 ft | 330 kts | 252° |
| 2026-04-20 07:13 | 34.30376 | 132.85316 | 21851 ft | 327 kts | 252° |
| 2026-04-20 07:13 | 34.29569 | 132.82744 | 21471 ft | 324 kts | 252° |
| 2026-04-20 07:13 | 34.28774 | 132.80217 | 21085 ft | 322 kts | 252° |
| 2026-04-20 07:13 | 34.27978 | 132.77698 | 20677 ft | 320 kts | 252° |
| 2026-04-20 07:14 | 34.27190 | 132.75197 | 20294 ft | 318 kts | 253° |
| 2026-04-20 07:14 | 34.26402 | 132.72708 | 19890 ft | 316 kts | 252° |
| 2026-04-20 07:14 | 34.25614 | 132.70210 | 19478 ft | 315 kts | 253° |
| 2026-04-20 07:14 | 34.24838 | 132.67767 | 19095 ft | 312 kts | 253° |
| 2026-04-20 07:15 | 34.24067 | 132.65338 | 18725 ft | 310 kts | 253° |
| 2026-04-20 07:15 | 34.23293 | 132.62906 | 18318 ft | 309 kts | 253° |
| 2026-04-20 07:15 | 34.22530 | 132.60504 | 17894 ft | 308 kts | 253° |
| 2026-04-20 07:15 | 34.21766 | 132.58098 | 17477 ft | 307 kts | 253° |
| 2026-04-20 07:16 | 34.21006 | 132.55696 | 17080 ft | 306 kts | 253° |
| 2026-04-20 07:16 | 34.20261 | 132.53328 | 16700 ft | 304 kts | 253° |
| 2026-04-20 07:16 | 34.19502 | 132.50926 | 16309 ft | 303 kts | 252° |
| 2026-04-20 07:16 | 34.18755 | 132.48564 | 15919 ft | 302 kts | 253° |
| 2026-04-20 07:17 | 34.18011 | 132.46208 | 15526 ft | 301 kts | 252° |
| 2026-04-20 07:17 | 34.17271 | 132.43878 | 15137 ft | 300 kts | 252° |
| 2026-04-20 07:17 | 34.16523 | 132.41519 | 14740 ft | 299 kts | 252° |
| 2026-04-20 07:17 | 34.15779 | 132.39178 | 14370 ft | 297 kts | 252° |
| 2026-04-20 07:18 | 34.15040 | 132.36856 | 13992 ft | 296 kts | 252° |
| 2026-04-20 07:18 | 34.14311 | 132.34564 | 13599 ft | 296 kts | 251° |
| 2026-04-20 07:18 | 34.13585 | 132.32274 | 13217 ft | 295 kts | 251° |
| 2026-04-20 07:18 | 34.12851 | 132.29962 | 12851 ft | 294 kts | 250° |
| 2026-04-20 07:19 | 34.12112 | 132.27646 | 12484 ft | 293 kts | 250° |
| 2026-04-20 07:19 | 34.11382 | 132.25359 | 12117 ft | 292 kts | 250° |
| 2026-04-20 07:19 | 34.10659 | 132.23097 | 11773 ft | 290 kts | 250° |
| 2026-04-20 07:19 | 34.09931 | 132.20822 | 11439 ft | 287 kts | 250° |
| 2026-04-20 07:20 | 34.09219 | 132.18594 | 11082 ft | 286 kts | 249° |
| 2026-04-20 07:20 | 34.08463 | 132.16380 | 10735 ft | 285 kts | 242° |
| 2026-04-20 07:20 | 34.07213 | 132.14540 | 10387 ft | 285 kts | 221° |
| 2026-04-20 07:20 | 34.05495 | 132.13338 | 10053 ft | 286 kts | 206° |
| 2026-04-20 07:21 | 34.03711 | 132.12422 | 9990 ft | 272 kts | 205° |
| 2026-04-20 07:21 | 34.01983 | 132.11548 | 9786 ft | 268 kts | 205° |
| 2026-04-20 07:21 | 34.00281 | 132.10675 | 9457 ft | 267 kts | 205° |
| 2026-04-20 07:21 | 33.98565 | 132.09790 | 9121 ft | 266 kts | 205° |
| 2026-04-20 07:22 | 33.96882 | 132.08919 | 8800 ft | 264 kts | 205° |
| 2026-04-20 07:22 | 33.95199 | 132.08044 | 8477 ft | 263 kts | 205° |
| 2026-04-20 07:22 | 33.93499 | 132.07161 | 8157 ft | 261 kts | 205° |
| 2026-04-20 07:22 | 33.91828 | 132.06291 | 7837 ft | 260 kts | 205° |
| 2026-04-20 07:23 | 33.90189 | 132.05441 | 7532 ft | 258 kts | 205° |
| 2026-04-20 07:23 | 33.88531 | 132.04585 | 7222 ft | 257 kts | 204° |
| 2026-04-20 07:23 | 33.86891 | 132.03744 | 6929 ft | 255 kts | 204° |
| 2026-04-20 07:23 | 33.85274 | 132.02911 | 6631 ft | 253 kts | 204° |
| 2026-04-20 07:24 | 33.83649 | 132.02072 | 6326 ft | 252 kts | 204° |
| 2026-04-20 07:24 | 33.82042 | 132.01241 | 6014 ft | 251 kts | 204° |
| 2026-04-20 07:24 | 33.80439 | 132.00412 | 5709 ft | 250 kts | 204° |
| 2026-04-20 07:24 | 33.78848 | 131.99588 | 5416 ft | 248 kts | 204° |
| 2026-04-20 07:25 | 33.77302 | 131.98639 | 5122 ft | 247 kts | 210° |
| 2026-04-20 07:25 | 33.75879 | 131.97492 | 4838 ft | 245 kts | 216° |
| 2026-04-20 07:25 | 33.74521 | 131.96254 | 4558 ft | 243 kts | 216° |
| 2026-04-20 07:25 | 33.73181 | 131.95020 | 4273 ft | 242 kts | 216° |
| 2026-04-20 07:26 | 33.71852 | 131.93796 | 3982 ft | 242 kts | 216° |
| 2026-04-20 07:26 | 33.70506 | 131.92558 | 3696 ft | 241 kts | 216° |
| 2026-04-20 07:26 | 33.69181 | 131.91342 | 3418 ft | 240 kts | 216° |
| 2026-04-20 07:26 | 33.67870 | 131.90140 | 3147 ft | 238 kts | 215° |
| 2026-04-20 07:27 | 33.66589 | 131.88965 | 3104 ft | 224 kts | 215° |
| 2026-04-20 07:27 | 33.65390 | 131.87866 | 3066 ft | 211 kts | 215° |
| 2026-04-20 07:27 | 33.64246 | 131.86818 | 3035 ft | 203 kts | 215° |
| 2026-04-20 07:27 | 33.63117 | 131.85790 | 2997 ft | 204 kts | 215° |
| 2026-04-20 07:28 | 33.62035 | 131.84705 | 2971 ft | 205 kts | 221° |
| 2026-04-20 07:28 | 33.61043 | 131.83484 | 2760 ft | 204 kts | 225° |
| 2026-04-20 07:28 | 33.60079 | 131.82246 | 2571 ft | 202 kts | 225° |
| 2026-04-20 07:28 | 33.59116 | 131.81007 | 2386 ft | 202 kts | 225° |
| 2026-04-20 07:29 | 33.58154 | 131.79774 | 2197 ft | 198 kts | 225° |
| 2026-04-20 07:29 | 33.57458 | 131.78882 | 1954 ft | 201 kts | 225° |
| 2026-04-20 07:29 | 33.56536 | 131.77698 | 1766 ft | 185 kts | 224° |
| 2026-04-20 07:29 | 33.55679 | 131.76596 | 1458 ft | 175 kts | 224° |
| 2026-04-20 07:30 | 33.54873 | 131.75569 | 1190 ft | 164 kts | 224° |
| 2026-04-20 07:30 | 33.54110 | 131.74638 | 998 ft | 146 kts | 217° |
| 2026-04-20 07:30 | 33.53286 | 131.74030 | 786 ft | 134 kts | 199° |
| 2026-04-20 07:30 | 33.52404 | 131.73747 | 597 ft | 131 kts | 183° |
| 2026-04-20 07:31 | 33.51480 | 131.73740 | 499 ft | 132 kts | 175° |
| 2026-04-20 07:31 | 33.50552 | 131.73734 | 325 ft | 133 kts | 179° |
| 2026-04-20 07:31 | 33.49642 | 131.73724 | 138 ft | 130 kts | 178° |
| 2026-04-20 07:31 | 33.48798 | 131.73718 | 29 ft | 122 kts | 177° |
| 2026-04-20 07:32 | 33.48088 | 131.73715 | 28 ft | 79 kts | 181° |
| 2026-04-20 07:32 | 33.47683 | 131.73708 | 28 ft | 46 kts | 182° |
| 2026-04-20 07:32 | 33.47510 | 131.73680 | 28 ft | 11 kts | 235° |
| 2026-04-20 07:32 | 33.47498 | 131.73630 | 28 ft | 6 kts | 271° |
| 2026-04-20 07:33 | 33.47501 | 131.73567 | 28 ft | 8 kts | 273° |
| 2026-04-20 07:33 | 33.47532 | 131.73512 | 28 ft | 9 kts | 344° |
| 2026-04-20 07:33 | 33.47603 | 131.73509 | 28 ft | 11 kts | 1° |
| 2026-04-20 07:33 | 33.47681 | 131.73511 | 28 ft | 9 kts | 354° |
| 2026-04-20 07:34 | 33.47707 | 131.73450 | 28 ft | 7 kts | 268° |
| 2026-04-20 07:34 | 33.47706 | 131.73386 | 28 ft | 6 kts | 270° |
| 2026-04-20 07:34 | 33.47706 | 131.73346 | 28 ft | 0 kts | 270° |